sensor_id;sensor_type;location;lat;lon;timestamp;temperature;humidity
13322;DHT22;6730;46.248;6.930;2023-04-06T00:01:49;4.80;93.40
13322;DHT22;6730;46.248;6.930;2023-04-06T00:04:15;4.90;93.40
13322;DHT22;6730;46.248;6.930;2023-04-06T00:06:41;4.90;93.40
13322;DHT22;6730;46.248;6.930;2023-04-06T00:09:07;5.00;93.20
13322;DHT22;6730;46.248;6.930;2023-04-06T00:11:33;5.00;93.30
13322;DHT22;6730;46.248;6.930;2023-04-06T00:13:59;5.00;93.20
13322;DHT22;6730;46.248;6.930;2023-04-06T00:16:25;5.00;93.10
13322;DHT22;6730;46.248;6.930;2023-04-06T00:18:51;4.90;93.10
13322;DHT22;6730;46.248;6.930;2023-04-06T00:21:17;4.90;93.20
13322;DHT22;6730;46.248;6.930;2023-04-06T00:23:43;4.80;93.30
13322;DHT22;6730;46.248;6.930;2023-04-06T00:26:09;4.70;93.30
13322;DHT22;6730;46.248;6.930;2023-04-06T00:28:36;4.70;93.50
13322;DHT22;6730;46.248;6.930;2023-04-06T00:31:02;4.70;93.50
13322;DHT22;6730;46.248;6.930;2023-04-06T00:33:28;4.80;93.50
13322;DHT22;6730;46.248;6.930;2023-04-06T00:35:53;4.80;93.50
13322;DHT22;6730;46.248;6.930;2023-04-06T00:38:19;4.80;93.60
13322;DHT22;6730;46.248;6.930;2023-04-06T00:40:46;4.90;93.40
13322;DHT22;6730;46.248;6.930;2023-04-06T00:43:12;4.90;93.30
13322;DHT22;6730;46.248;6.930;2023-04-06T00:45:41;4.90;93.30
13322;DHT22;6730;46.248;6.930;2023-04-06T00:48:07;4.80;93.40
13322;DHT22;6730;46.248;6.930;2023-04-06T00:50:34;4.70;93.50
13322;DHT22;6730;46.248;6.930;2023-04-06T00:53:00;4.60;93.70
13322;DHT22;6730;46.248;6.930;2023-04-06T00:55:29;4.60;93.70
13322;DHT22;6730;46.248;6.930;2023-04-06T00:57:57;4.50;93.80
13322;DHT22;6730;46.248;6.930;2023-04-06T01:00:23;4.50;93.80
13322;DHT22;6730;46.248;6.930;2023-04-06T01:02:49;4.60;93.80
13322;DHT22;6730;46.248;6.930;2023-04-06T01:05:15;4.60;93.80
13322;DHT22;6730;46.248;6.930;2023-04-06T01:07:41;4.50;93.80
13322;DHT22;6730;46.248;6.930;2023-04-06T01:10:07;4.50;93.80
13322;DHT22;6730;46.248;6.930;2023-04-06T01:12:33;4.40;93.90
13322;DHT22;6730;46.248;6.930;2023-04-06T01:14:59;4.40;94.10
13322;DHT22;6730;46.248;6.930;2023-04-06T01:17:25;4.40;94.30
13322;DHT22;6730;46.248;6.930;2023-04-06T01:19:50;4.40;94.20
13322;DHT22;6730;46.248;6.930;2023-04-06T01:22:19;4.40;94.20
13322;DHT22;6730;46.248;6.930;2023-04-06T01:24:45;4.30;94.40
13322;DHT22;6730;46.248;6.930;2023-04-06T01:27:11;4.30;94.40
13322;DHT22;6730;46.248;6.930;2023-04-06T01:29:37;4.30;94.50
13322;DHT22;6730;46.248;6.930;2023-04-06T01:32:03;4.30;94.60
13322;DHT22;6730;46.248;6.930;2023-04-06T01:34:29;4.30;94.50
13322;DHT22;6730;46.248;6.930;2023-04-06T01:36:54;4.30;94.60
13322;DHT22;6730;46.248;6.930;2023-04-06T01:39:20;4.30;94.50
13322;DHT22;6730;46.248;6.930;2023-04-06T01:41:46;4.30;94.60
13322;DHT22;6730;46.248;6.930;2023-04-06T01:44:15;4.30;94.40
13322;DHT22;6730;46.248;6.930;2023-04-06T01:46:41;4.40;94.40
13322;DHT22;6730;46.248;6.930;2023-04-06T01:49:07;4.40;94.30
13322;DHT22;6730;46.248;6.930;2023-04-06T01:51:32;4.40;94.30
13322;DHT22;6730;46.248;6.930;2023-04-06T01:53:58;4.30;94.50
13322;DHT22;6730;46.248;6.930;2023-04-06T01:56:24;4.30;94.60
13322;DHT22;6730;46.248;6.930;2023-04-06T01:58:50;4.30;94.50
13322;DHT22;6730;46.248;6.930;2023-04-06T02:01:15;4.30;94.50
13322;DHT22;6730;46.248;6.930;2023-04-06T02:03:41;4.30;94.50
13322;DHT22;6730;46.248;6.930;2023-04-06T02:06:06;4.40;94.30
13322;DHT22;6730;46.248;6.930;2023-04-06T02:08:32;4.50;94.20
13322;DHT22;6730;46.248;6.930;2023-04-06T02:10:58;4.40;94.20
13322;DHT22;6730;46.248;6.930;2023-04-06T02:13:23;4.40;94.20
13322;DHT22;6730;46.248;6.930;2023-04-06T02:15:49;4.30;94.30
13322;DHT22;6730;46.248;6.930;2023-04-06T02:18:15;4.20;94.50
13322;DHT22;6730;46.248;6.930;2023-04-06T02:20:43;4.20;94.60
13322;DHT22;6730;46.248;6.930;2023-04-06T02:23:08;4.20;94.50
13322;DHT22;6730;46.248;6.930;2023-04-06T02:25:34;4.30;94.50
13322;DHT22;6730;46.248;6.930;2023-04-06T02:28:00;4.30;94.30
13322;DHT22;6730;46.248;6.930;2023-04-06T02:30:26;4.30;94.40
13322;DHT22;6730;46.248;6.930;2023-04-06T02:32:52;4.30;94.40
13322;DHT22;6730;46.248;6.930;2023-04-06T02:35:17;4.10;94.60
13322;DHT22;6730;46.248;6.930;2023-04-06T02:37:43;4.10;94.60
13322;DHT22;6730;46.248;6.930;2023-04-06T02:40:09;4.20;94.60
13322;DHT22;6730;46.248;6.930;2023-04-06T02:42:35;4.20;94.50
13322;DHT22;6730;46.248;6.930;2023-04-06T02:45:01;4.20;94.60
13322;DHT22;6730;46.248;6.930;2023-04-06T02:47:27;4.20;94.70
13322;DHT22;6730;46.248;6.930;2023-04-06T02:49:52;4.10;94.70
13322;DHT22;6730;46.248;6.930;2023-04-06T02:52:18;4.10;94.70
13322;DHT22;6730;46.248;6.930;2023-04-06T02:54:44;4.30;94.50
13322;DHT22;6730;46.248;6.930;2023-04-06T02:57:09;4.20;94.70
13322;DHT22;6730;46.248;6.930;2023-04-06T02:59:35;4.10;94.80
13322;DHT22;6730;46.248;6.930;2023-04-06T03:02:01;4.10;94.70
13322;DHT22;6730;46.248;6.930;2023-04-06T03:04:26;4.10;94.60
13322;DHT22;6730;46.248;6.930;2023-04-06T03:06:54;4.20;94.40
13322;DHT22;6730;46.248;6.930;2023-04-06T03:09:20;4.10;94.40
13322;DHT22;6730;46.248;6.930;2023-04-06T03:11:46;4.10;94.50
13322;DHT22;6730;46.248;6.930;2023-04-06T03:14:12;4.10;94.50
13322;DHT22;6730;46.248;6.930;2023-04-06T03:16:37;4.10;94.30
13322;DHT22;6730;46.248;6.930;2023-04-06T03:19:03;4.10;94.30
13322;DHT22;6730;46.248;6.930;2023-04-06T03:21:29;4.00;94.40
13322;DHT22;6730;46.248;6.930;2023-04-06T03:23:55;4.10;94.60
13322;DHT22;6730;46.248;6.930;2023-04-06T03:26:23;4.00;94.20
13322;DHT22;6730;46.248;6.930;2023-04-06T03:28:49;3.90;94.10
13322;DHT22;6730;46.248;6.930;2023-04-06T03:31:15;3.90;94.20
13322;DHT22;6730;46.248;6.930;2023-04-06T03:33:41;3.90;94.30
13322;DHT22;6730;46.248;6.930;2023-04-06T03:36:07;3.90;94.30
13322;DHT22;6730;46.248;6.930;2023-04-06T03:38:32;3.80;94.40
13322;DHT22;6730;46.248;6.930;2023-04-06T03:40:58;3.70;94.50
13322;DHT22;6730;46.248;6.930;2023-04-06T03:43:24;3.70;94.50
13322;DHT22;6730;46.248;6.930;2023-04-06T03:45:49;3.70;94.50
13322;DHT22;6730;46.248;6.930;2023-04-06T03:48:15;3.60;94.70
13322;DHT22;6730;46.248;6.930;2023-04-06T03:50:41;3.70;94.60
13322;DHT22;6730;46.248;6.930;2023-04-06T03:53:06;3.70;94.90
13322;DHT22;6730;46.248;6.930;2023-04-06T03:55:32;3.90;94.40
13322;DHT22;6730;46.248;6.930;2023-04-06T03:57:58;4.00;94.20
13322;DHT22;6730;46.248;6.930;2023-04-06T04:00:24;4.20;93.90
13322;DHT22;6730;46.248;6.930;2023-04-06T04:02:50;4.10;94.10
13322;DHT22;6730;46.248;6.930;2023-04-06T04:05:16;4.20;94.00
13322;DHT22;6730;46.248;6.930;2023-04-06T04:07:41;4.30;93.90
13322;DHT22;6730;46.248;6.930;2023-04-06T04:10:07;4.40;93.70
13322;DHT22;6730;46.248;6.930;2023-04-06T04:12:33;4.20;93.90
13322;DHT22;6730;46.248;6.930;2023-04-06T04:14:59;4.20;93.90
13322;DHT22;6730;46.248;6.930;2023-04-06T04:17:25;4.30;93.80
13322;DHT22;6730;46.248;6.930;2023-04-06T04:19:50;4.30;93.80
13322;DHT22;6730;46.248;6.930;2023-04-06T04:22:16;4.30;93.70
13322;DHT22;6730;46.248;6.930;2023-04-06T04:24:42;4.30;93.60
13322;DHT22;6730;46.248;6.930;2023-04-06T04:27:07;4.10;93.70
13322;DHT22;6730;46.248;6.930;2023-04-06T04:29:34;3.90;93.90
13322;DHT22;6730;46.248;6.930;2023-04-06T04:32:00;3.70;94.30
13322;DHT22;6730;46.248;6.930;2023-04-06T04:34:25;3.70;94.20
13322;DHT22;6730;46.248;6.930;2023-04-06T04:36:52;3.70;94.20
13322;DHT22;6730;46.248;6.930;2023-04-06T04:39:17;3.70;94.20
13322;DHT22;6730;46.248;6.930;2023-04-06T04:41:43;3.80;94.00
13322;DHT22;6730;46.248;6.930;2023-04-06T04:44:09;3.80;94.20
13322;DHT22;6730;46.248;6.930;2023-04-06T04:46:35;3.80;94.30
13322;DHT22;6730;46.248;6.930;2023-04-06T04:49:01;3.70;94.40
13322;DHT22;6730;46.248;6.930;2023-04-06T04:51:27;3.50;94.50
13322;DHT22;6730;46.248;6.930;2023-04-06T04:53:54;3.40;94.70
13322;DHT22;6730;46.248;6.930;2023-04-06T04:56:20;3.30;94.70
13322;DHT22;6730;46.248;6.930;2023-04-06T04:58:45;3.30;94.80
13322;DHT22;6730;46.248;6.930;2023-04-06T05:01:11;3.30;94.80
13322;DHT22;6730;46.248;6.930;2023-04-06T05:03:37;3.40;94.80
13322;DHT22;6730;46.248;6.930;2023-04-06T05:06:04;3.30;94.80
13322;DHT22;6730;46.248;6.930;2023-04-06T05:08:30;3.30;94.80
13322;DHT22;6730;46.248;6.930;2023-04-06T05:10:56;3.30;94.90
13322;DHT22;6730;46.248;6.930;2023-04-06T05:13:21;3.30;94.80
13322;DHT22;6730;46.248;6.930;2023-04-06T05:15:47;3.40;94.80
13322;DHT22;6730;46.248;6.930;2023-04-06T05:18:13;3.30;94.80
13322;DHT22;6730;46.248;6.930;2023-04-06T05:20:39;3.50;94.70
13322;DHT22;6730;46.248;6.930;2023-04-06T05:23:05;3.50;94.70
13322;DHT22;6730;46.248;6.930;2023-04-06T05:25:31;3.50;94.70
13322;DHT22;6730;46.248;6.930;2023-04-06T05:27:57;3.60;94.60
13322;DHT22;6730;46.248;6.930;2023-04-06T05:30:23;3.70;94.50
13322;DHT22;6730;46.248;6.930;2023-04-06T05:32:48;3.70;94.40
13322;DHT22;6730;46.248;6.930;2023-04-06T05:35:15;3.70;94.50
13322;DHT22;6730;46.248;6.930;2023-04-06T05:37:41;3.70;94.40
13322;DHT22;6730;46.248;6.930;2023-04-06T05:40:07;3.80;94.40
13322;DHT22;6730;46.248;6.930;2023-04-06T05:42:40;4.00;94.10
13322;DHT22;6730;46.248;6.930;2023-04-06T05:45:10;4.10;94.10
13322;DHT22;6730;46.248;6.930;2023-04-06T05:47:37;4.30;93.90
13322;DHT22;6730;46.248;6.930;2023-04-06T05:50:03;4.30;94.10
13322;DHT22;6730;46.248;6.930;2023-04-06T05:52:28;4.60;93.70
13322;DHT22;6730;46.248;6.930;2023-04-06T05:54:54;4.60;93.30
13322;DHT22;6730;46.248;6.930;2023-04-06T05:57:20;4.70;93.00
13322;DHT22;6730;46.248;6.930;2023-04-06T05:59:46;4.70;92.30
13322;DHT22;6730;46.248;6.930;2023-04-06T06:02:12;4.60;92.30
13322;DHT22;6730;46.248;6.930;2023-04-06T06:04:38;4.60;92.30
13322;DHT22;6730;46.248;6.930;2023-04-06T06:07:03;4.70;95.30
13322;DHT22;6730;46.248;6.930;2023-04-06T06:09:29;4.40;96.40
13322;DHT22;6730;46.248;6.930;2023-04-06T06:11:55;4.50;96.60
13322;DHT22;6730;46.248;6.930;2023-04-06T06:14:20;4.70;94.50
13322;DHT22;6730;46.248;6.930;2023-04-06T06:16:47;5.00;96.20
13322;DHT22;6730;46.248;6.930;2023-04-06T06:19:13;5.30;95.00
13322;DHT22;6730;46.248;6.930;2023-04-06T06:21:39;5.60;94.00
13322;DHT22;6730;46.248;6.930;2023-04-06T06:24:05;5.70;95.00
13322;DHT22;6730;46.248;6.930;2023-04-06T06:26:31;6.30;95.20
13322;DHT22;6730;46.248;6.930;2023-04-06T06:28:56;6.70;94.40
13322;DHT22;6730;46.248;6.930;2023-04-06T06:31:22;7.00;94.30
13322;DHT22;6730;46.248;6.930;2023-04-06T06:33:49;7.00;93.70
13322;DHT22;6730;46.248;6.930;2023-04-06T06:36:18;7.50;94.00
13322;DHT22;6730;46.248;6.930;2023-04-06T06:38:44;7.60;92.90
13322;DHT22;6730;46.248;6.930;2023-04-06T06:41:10;7.50;93.40
13322;DHT22;6730;46.248;6.930;2023-04-06T06:43:36;7.90;94.00
13322;DHT22;6730;46.248;6.930;2023-04-06T06:46:03;8.00;93.90
13322;DHT22;6730;46.248;6.930;2023-04-06T06:48:29;8.70;93.60
13322;DHT22;6730;46.248;6.930;2023-04-06T06:50:55;8.60;92.60
13322;DHT22;6730;46.248;6.930;2023-04-06T06:53:21;8.70;92.20
13322;DHT22;6730;46.248;6.930;2023-04-06T06:55:46;8.60;93.40
13322;DHT22;6730;46.248;6.930;2023-04-06T06:58:14;9.00;93.10
13322;DHT22;6730;46.248;6.930;2023-04-06T07:00:40;9.30;91.50
13322;DHT22;6730;46.248;6.930;2023-04-06T07:03:06;9.50;91.80
13322;DHT22;6730;46.248;6.930;2023-04-06T07:05:32;9.90;90.70
13322;DHT22;6730;46.248;6.930;2023-04-06T07:07:57;10.00;90.40
13322;DHT22;6730;46.248;6.930;2023-04-06T07:10:23;9.70;88.20
13322;DHT22;6730;46.248;6.930;2023-04-06T07:12:49;9.10;90.80
13322;DHT22;6730;46.248;6.930;2023-04-06T07:15:15;8.90;89.70
13322;DHT22;6730;46.248;6.930;2023-04-06T07:17:41;9.10;89.90
13322;DHT22;6730;46.248;6.930;2023-04-06T07:20:07;9.90;91.00
13322;DHT22;6730;46.248;6.930;2023-04-06T07:22:33;10.40;89.60
13322;DHT22;6730;46.248;6.930;2023-04-06T07:24:59;10.70;89.30
13322;DHT22;6730;46.248;6.930;2023-04-06T07:27:25;11.00;88.60
13322;DHT22;6730;46.248;6.930;2023-04-06T07:29:51;10.90;91.20
13322;DHT22;6730;46.248;6.930;2023-04-06T07:32:16;11.40;90.50
13322;DHT22;6730;46.248;6.930;2023-04-06T07:34:42;11.50;86.60
13322;DHT22;6730;46.248;6.930;2023-04-06T07:37:08;11.40;89.60
13322;DHT22;6730;46.248;6.930;2023-04-06T07:39:34;11.10;88.00
13322;DHT22;6730;46.248;6.930;2023-04-06T07:42:00;11.10;90.80
13322;DHT22;6730;46.248;6.930;2023-04-06T07:44:25;11.00;92.10
13322;DHT22;6730;46.248;6.930;2023-04-06T07:46:51;10.80;91.80
13322;DHT22;6730;46.248;6.930;2023-04-06T07:49:17;10.80;90.60
13322;DHT22;6730;46.248;6.930;2023-04-06T07:51:43;10.70;91.50
13322;DHT22;6730;46.248;6.930;2023-04-06T07:54:08;11.20;92.50
13322;DHT22;6730;46.248;6.930;2023-04-06T07:56:34;11.00;90.80
13322;DHT22;6730;46.248;6.930;2023-04-06T07:59:00;10.60;91.10
13322;DHT22;6730;46.248;6.930;2023-04-06T08:01:27;10.30;91.90
13322;DHT22;6730;46.248;6.930;2023-04-06T08:03:53;10.70;92.40
13322;DHT22;6730;46.248;6.930;2023-04-06T08:06:21;11.00;91.90
13322;DHT22;6730;46.248;6.930;2023-04-06T08:08:46;11.20;90.00
13322;DHT22;6730;46.248;6.930;2023-04-06T08:11:12;11.40;87.70
13322;DHT22;6730;46.248;6.930;2023-04-06T08:13:38;11.10;86.90
13322;DHT22;6730;46.248;6.930;2023-04-06T08:16:03;11.60;90.00
13322;DHT22;6730;46.248;6.930;2023-04-06T08:18:29;11.90;87.90
13322;DHT22;6730;46.248;6.930;2023-04-06T08:20:55;11.90;87.10
13322;DHT22;6730;46.248;6.930;2023-04-06T08:23:21;11.70;87.30
13322;DHT22;6730;46.248;6.930;2023-04-06T08:25:47;10.90;88.70
13322;DHT22;6730;46.248;6.930;2023-04-06T08:28:12;10.60;88.90
13322;DHT22;6730;46.248;6.930;2023-04-06T08:30:42;10.60;89.60
13322;DHT22;6730;46.248;6.930;2023-04-06T08:33:08;10.00;89.30
13322;DHT22;6730;46.248;6.930;2023-04-06T08:35:35;9.80;91.80
13322;DHT22;6730;46.248;6.930;2023-04-06T08:38:00;10.40;90.10
13322;DHT22;6730;46.248;6.930;2023-04-06T08:40:27;10.10;90.10
13322;DHT22;6730;46.248;6.930;2023-04-06T08:42:55;9.30;88.30
13322;DHT22;6730;46.248;6.930;2023-04-06T08:45:21;8.90;90.30
13322;DHT22;6730;46.248;6.930;2023-04-06T08:47:51;9.70;92.50
13322;DHT22;6730;46.248;6.930;2023-04-06T08:50:18;9.70;90.70
13322;DHT22;6730;46.248;6.930;2023-04-06T08:52:48;9.90;90.70
13322;DHT22;6730;46.248;6.930;2023-04-06T08:55:14;10.00;90.70
13322;DHT22;6730;46.248;6.930;2023-04-06T08:57:41;9.70;88.50
13322;DHT22;6730;46.248;6.930;2023-04-06T09:00:10;9.70;87.20
13322;DHT22;6730;46.248;6.930;2023-04-06T09:02:39;9.20;87.80
13322;DHT22;6730;46.248;6.930;2023-04-06T09:05:08;9.40;89.80
13322;DHT22;6730;46.248;6.930;2023-04-06T09:07:35;9.60;90.00
13322;DHT22;6730;46.248;6.930;2023-04-06T09:10:01;10.00;89.70
13322;DHT22;6730;46.248;6.930;2023-04-06T09:12:29;11.10;88.80
13322;DHT22;6730;46.248;6.930;2023-04-06T09:14:56;11.80;89.30
13322;DHT22;6730;46.248;6.930;2023-04-06T09:17:23;11.70;88.30
13322;DHT22;6730;46.248;6.930;2023-04-06T09:19:49;10.90;87.30
13322;DHT22;6730;46.248;6.930;2023-04-06T09:22:15;11.10;86.10
13322;DHT22;6730;46.248;6.930;2023-04-06T09:24:46;11.20;87.00
13322;DHT22;6730;46.248;6.930;2023-04-06T09:27:13;11.10;86.90
13322;DHT22;6730;46.248;6.930;2023-04-06T09:29:40;11.50;88.80
13322;DHT22;6730;46.248;6.930;2023-04-06T09:32:07;11.30;87.20
13322;DHT22;6730;46.248;6.930;2023-04-06T09:34:37;11.60;90.40
13322;DHT22;6730;46.248;6.930;2023-04-06T09:37:15;11.00;85.90
13322;DHT22;6730;46.248;6.930;2023-04-06T09:39:41;10.70;87.10
13322;DHT22;6730;46.248;6.930;2023-04-06T09:42:07;10.40;88.90
13322;DHT22;6730;46.248;6.930;2023-04-06T09:44:33;10.00;90.20
13322;DHT22;6730;46.248;6.930;2023-04-06T09:46:59;10.70;90.20
13322;DHT22;6730;46.248;6.930;2023-04-06T09:49:33;11.50;90.70
13322;DHT22;6730;46.248;6.930;2023-04-06T09:52:00;11.80;88.90
13322;DHT22;6730;46.248;6.930;2023-04-06T09:54:29;11.60;89.00
13322;DHT22;6730;46.248;6.930;2023-04-06T09:57:07;11.50;87.80
13322;DHT22;6730;46.248;6.930;2023-04-06T10:05:46;10.30;89.20
13322;DHT22;6730;46.248;6.930;2023-04-06T10:08:14;10.40;88.90
13322;DHT22;6730;46.248;6.930;2023-04-06T10:10:41;10.30;90.80
13322;DHT22;6730;46.248;6.930;2023-04-06T10:13:10;11.10;91.80
13322;DHT22;6730;46.248;6.930;2023-04-06T10:15:38;10.80;89.30
13322;DHT22;6730;46.248;6.930;2023-04-06T10:18:05;10.90;91.30
13322;DHT22;6730;46.248;6.930;2023-04-06T10:20:53;12.00;91.00
13322;DHT22;6730;46.248;6.930;2023-04-06T10:26:13;11.40;92.20
13322;DHT22;6730;46.248;6.930;2023-04-06T10:28:41;11.40;92.20
13322;DHT22;6730;46.248;6.930;2023-04-06T10:31:07;11.10;91.90
13322;DHT22;6730;46.248;6.930;2023-04-06T10:33:33;10.40;92.20
13322;DHT22;6730;46.248;6.930;2023-04-06T10:36:21;10.80;91.70
13322;DHT22;6730;46.248;6.930;2023-04-06T10:38:47;10.70;93.80
13322;DHT22;6730;46.248;6.930;2023-04-06T10:41:13;10.40;93.90
13322;DHT22;6730;46.248;6.930;2023-04-06T10:43:41;10.80;95.20
13322;DHT22;6730;46.248;6.930;2023-04-06T10:46:08;11.10;93.40
13322;DHT22;6730;46.248;6.930;2023-04-06T10:48:44;11.10;94.60
13322;DHT22;6730;46.248;6.930;2023-04-06T10:51:18;10.80;93.40
13322;DHT22;6730;46.248;6.930;2023-04-06T10:53:46;10.70;94.60
13322;DHT22;6730;46.248;6.930;2023-04-06T10:56:16;10.70;93.80
13322;DHT22;6730;46.248;6.930;2023-04-06T10:58:49;10.70;94.30
13322;DHT22;6730;46.248;6.930;2023-04-06T11:01:20;10.50;94.50
13322;DHT22;6730;46.248;6.930;2023-04-06T11:03:53;10.70;93.00
13322;DHT22;6730;46.248;6.930;2023-04-06T11:06:19;10.50;93.70
13322;DHT22;6730;46.248;6.930;2023-04-06T11:08:46;10.90;93.90
13322;DHT22;6730;46.248;6.930;2023-04-06T11:11:13;10.30;92.20
13322;DHT22;6730;46.248;6.930;2023-04-06T11:13:49;10.70;92.70
13322;DHT22;6730;46.248;6.930;2023-04-06T11:16:29;10.80;93.40
13322;DHT22;6730;46.248;6.930;2023-04-06T11:19:03;11.20;92.10
13322;DHT22;6730;46.248;6.930;2023-04-06T11:21:38;10.50;93.70
13322;DHT22;6730;46.248;6.930;2023-04-06T11:24:11;10.90;92.90
13322;DHT22;6730;46.248;6.930;2023-04-06T11:29:07;11.40;92.90
13322;DHT22;6730;46.248;6.930;2023-04-06T11:31:41;11.20;92.30
13322;DHT22;6730;46.248;6.930;2023-04-06T11:34:16;11.10;91.90
13322;DHT22;6730;46.248;6.930;2023-04-06T11:36:43;11.10;92.20
13322;DHT22;6730;46.248;6.930;2023-04-06T11:39:09;10.60;92.90
13322;DHT22;6730;46.248;6.930;2023-04-06T11:41:36;10.90;92.70
13322;DHT22;6730;46.248;6.930;2023-04-06T11:44:02;11.30;92.70
13322;DHT22;6730;46.248;6.930;2023-04-06T11:46:31;11.40;92.40
13322;DHT22;6730;46.248;6.930;2023-04-06T11:49:01;11.20;92.60
13322;DHT22;6730;46.248;6.930;2023-04-06T11:51:27;11.10;93.90
13322;DHT22;6730;46.248;6.930;2023-04-06T11:53:53;11.20;93.40
13322;DHT22;6730;46.248;6.930;2023-04-06T11:56:26;11.20;92.40
13322;DHT22;6730;46.248;6.930;2023-04-06T11:58:55;11.30;92.30
13322;DHT22;6730;46.248;6.930;2023-04-06T12:01:21;10.90;92.00
13322;DHT22;6730;46.248;6.930;2023-04-06T12:03:47;11.10;92.50
13322;DHT22;6730;46.248;6.930;2023-04-06T12:06:13;11.40;90.90
13322;DHT22;6730;46.248;6.930;2023-04-06T12:08:39;11.60;90.60
13322;DHT22;6730;46.248;6.930;2023-04-06T12:11:05;11.90;91.80
13322;DHT22;6730;46.248;6.930;2023-04-06T12:13:30;11.50;91.30
13322;DHT22;6730;46.248;6.930;2023-04-06T12:15:56;11.60;91.40
13322;DHT22;6730;46.248;6.930;2023-04-06T12:18:22;11.70;91.00
13322;DHT22;6730;46.248;6.930;2023-04-06T12:20:47;11.20;90.50
13322;DHT22;6730;46.248;6.930;2023-04-06T12:23:13;11.00;92.70
13322;DHT22;6730;46.248;6.930;2023-04-06T12:25:40;11.00;91.90
13322;DHT22;6730;46.248;6.930;2023-04-06T12:28:06;11.40;91.60
13322;DHT22;6730;46.248;6.930;2023-04-06T12:30:32;11.20;88.90
13322;DHT22;6730;46.248;6.930;2023-04-06T12:32:59;11.00;87.60
13322;DHT22;6730;46.248;6.930;2023-04-06T12:35:25;11.10;89.40
13322;DHT22;6730;46.248;6.930;2023-04-06T12:37:51;10.80;86.50
13322;DHT22;6730;46.248;6.930;2023-04-06T12:40:16;10.40;87.80
13322;DHT22;6730;46.248;6.930;2023-04-06T12:42:42;10.30;88.50
13322;DHT22;6730;46.248;6.930;2023-04-06T12:45:11;10.20;89.50
13322;DHT22;6730;46.248;6.930;2023-04-06T12:47:37;10.00;88.50
13322;DHT22;6730;46.248;6.930;2023-04-06T12:50:04;9.90;86.50
13322;DHT22;6730;46.248;6.930;2023-04-06T12:52:31;10.20;88.40
13322;DHT22;6730;46.248;6.930;2023-04-06T12:54:57;10.10;89.80
13322;DHT22;6730;46.248;6.930;2023-04-06T12:57:25;10.00;89.30
13322;DHT22;6730;46.248;6.930;2023-04-06T12:59:51;10.10;90.10
13322;DHT22;6730;46.248;6.930;2023-04-06T13:02:18;10.00;88.10
13322;DHT22;6730;46.248;6.930;2023-04-06T13:04:45;10.30;90.00
13322;DHT22;6730;46.248;6.930;2023-04-06T13:07:11;10.20;87.60
13322;DHT22;6730;46.248;6.930;2023-04-06T13:09:37;10.30;88.50
13322;DHT22;6730;46.248;6.930;2023-04-06T13:12:02;10.40;88.90
13322;DHT22;6730;46.248;6.930;2023-04-06T13:14:28;10.50;89.00
13322;DHT22;6730;46.248;6.930;2023-04-06T13:16:54;10.70;89.00
13322;DHT22;6730;46.248;6.930;2023-04-06T13:19:20;10.30;87.30
13322;DHT22;6730;46.248;6.930;2023-04-06T13:21:45;10.30;88.30
13322;DHT22;6730;46.248;6.930;2023-04-06T13:24:11;10.60;88.30
13322;DHT22;6730;46.248;6.930;2023-04-06T13:26:37;10.60;85.00
13322;DHT22;6730;46.248;6.930;2023-04-06T13:29:02;10.90;80.50
13322;DHT22;6730;46.248;6.930;2023-04-06T13:31:29;10.80;81.00
13322;DHT22;6730;46.248;6.930;2023-04-06T13:33:54;10.80;81.70
13322;DHT22;6730;46.248;6.930;2023-04-06T13:36:20;10.90;83.10
13322;DHT22;6730;46.248;6.930;2023-04-06T13:38:46;11.00;78.40
13322;DHT22;6730;46.248;6.930;2023-04-06T13:41:20;11.10;80.80
13322;DHT22;6730;46.248;6.930;2023-04-06T13:43:46;11.20;79.90
13322;DHT22;6730;46.248;6.930;2023-04-06T13:46:12;11.20;79.80
13322;DHT22;6730;46.248;6.930;2023-04-06T13:48:38;11.20;75.80
13322;DHT22;6730;46.248;6.930;2023-04-06T13:51:14;10.90;79.80
13322;DHT22;6730;46.248;6.930;2023-04-06T13:53:40;10.90;77.20
13322;DHT22;6730;46.248;6.930;2023-04-06T13:56:07;11.00;80.90
13322;DHT22;6730;46.248;6.930;2023-04-06T13:58:33;11.20;80.90
13322;DHT22;6730;46.248;6.930;2023-04-06T14:01:06;11.40;80.20
13322;DHT22;6730;46.248;6.930;2023-04-06T14:03:33;11.40;76.00
13322;DHT22;6730;46.248;6.930;2023-04-06T14:05:59;11.20;77.40
13322;DHT22;6730;46.248;6.930;2023-04-06T14:08:25;11.30;80.00
13322;DHT22;6730;46.248;6.930;2023-04-06T14:10:50;11.10;77.30
13322;DHT22;6730;46.248;6.930;2023-04-06T14:13:16;11.20;76.90
13322;DHT22;6730;46.248;6.930;2023-04-06T14:15:42;11.20;73.70
13322;DHT22;6730;46.248;6.930;2023-04-06T14:18:08;11.10;74.30
13322;DHT22;6730;46.248;6.930;2023-04-06T14:20:34;11.10;74.50
13322;DHT22;6730;46.248;6.930;2023-04-06T14:23:03;11.20;74.80
13322;DHT22;6730;46.248;6.930;2023-04-06T14:25:29;11.20;75.00
13322;DHT22;6730;46.248;6.930;2023-04-06T14:27:59;11.10;72.10
13322;DHT22;6730;46.248;6.930;2023-04-06T14:30:25;11.10;71.00
13322;DHT22;6730;46.248;6.930;2023-04-06T14:32:51;11.10;74.00
13322;DHT22;6730;46.248;6.930;2023-04-06T14:35:17;11.10;71.60
13322;DHT22;6730;46.248;6.930;2023-04-06T14:37:42;11.10;72.00
13322;DHT22;6730;46.248;6.930;2023-04-06T14:40:08;11.00;71.20
13322;DHT22;6730;46.248;6.930;2023-04-06T14:42:35;11.00;72.00
13322;DHT22;6730;46.248;6.930;2023-04-06T14:45:02;10.90;72.90
13322;DHT22;6730;46.248;6.930;2023-04-06T14:47:27;10.90;74.30
13322;DHT22;6730;46.248;6.930;2023-04-06T14:49:53;11.00;73.70
13322;DHT22;6730;46.248;6.930;2023-04-06T14:52:19;11.10;73.80
13322;DHT22;6730;46.248;6.930;2023-04-06T14:54:45;11.10;73.10
13322;DHT22;6730;46.248;6.930;2023-04-06T14:57:10;11.20;72.80
13322;DHT22;6730;46.248;6.930;2023-04-06T14:59:36;11.20;74.30
13322;DHT22;6730;46.248;6.930;2023-04-06T15:02:02;11.20;74.80
13322;DHT22;6730;46.248;6.930;2023-04-06T15:04:29;11.10;75.00
13322;DHT22;6730;46.248;6.930;2023-04-06T15:06:55;11.10;75.30
13322;DHT22;6730;46.248;6.930;2023-04-06T15:09:20;11.00;72.20
13322;DHT22;6730;46.248;6.930;2023-04-06T15:11:47;10.90;75.20
13322;DHT22;6730;46.248;6.930;2023-04-06T15:14:12;11.00;75.00
13322;DHT22;6730;46.248;6.930;2023-04-06T15:16:38;11.00;74.30
13322;DHT22;6730;46.248;6.930;2023-04-06T15:19:03;11.10;78.10
13322;DHT22;6730;46.248;6.930;2023-04-06T15:21:29;11.40;76.30
13322;DHT22;6730;46.248;6.930;2023-04-06T15:23:56;11.50;74.20
13322;DHT22;6730;46.248;6.930;2023-04-06T15:26:22;11.30;76.00
13322;DHT22;6730;46.248;6.930;2023-04-06T15:28:47;11.40;74.10
13322;DHT22;6730;46.248;6.930;2023-04-06T15:31:17;11.20;74.70
13322;DHT22;6730;46.248;6.930;2023-04-06T15:33:43;11.30;76.30
13322;DHT22;6730;46.248;6.930;2023-04-06T15:36:29;11.40;74.30
13322;DHT22;6730;46.248;6.930;2023-04-06T15:38:58;11.50;75.60
13322;DHT22;6730;46.248;6.930;2023-04-06T15:41:24;11.70;75.90
13322;DHT22;6730;46.248;6.930;2023-04-06T15:43:54;11.80;75.70
13322;DHT22;6730;46.248;6.930;2023-04-06T15:46:20;11.80;75.40
13322;DHT22;6730;46.248;6.930;2023-04-06T15:48:46;11.70;72.90
13322;DHT22;6730;46.248;6.930;2023-04-06T15:51:12;11.60;74.30
13322;DHT22;6730;46.248;6.930;2023-04-06T15:53:38;11.70;74.30
13322;DHT22;6730;46.248;6.930;2023-04-06T15:56:05;11.50;73.80
13322;DHT22;6730;46.248;6.930;2023-04-06T15:58:34;10.80;72.70
13322;DHT22;6730;46.248;6.930;2023-04-06T16:01:00;10.50;75.10
13322;DHT22;6730;46.248;6.930;2023-04-06T16:03:25;10.40;73.30